PST,Max TemperatureF,Mean TemperatureF,Min TemperatureF,Max Dew PointF,MeanDew PointF,Min DewpointF,Max Humidity, Mean Humidity, Min Humidity, Max Sea Level PressureIn, Mean Sea Level PressureIn, Min Sea Level PressureIn, Max VisibilityMiles, Mean VisibilityMiles, Min VisibilityMiles, Max Wind SpeedMPH, Mean Wind SpeedMPH, Max Gust SpeedMPH,PrecipitationIn, CloudCover, Events, WindDirDegrees
2012-11-1,63,51,39,26,20,15,53,35,17,29.96,29.90,29.84,10,10,10,20,10,25,0.00,4,,199
2012-11-2,61,45,28,28,23,19,69,46,23,30.15,30.05,29.95,10,10,10,12,5,13,0.00,2,,156
2012-11-3,64,43,22,24,20,17,81,51,20,30.31,30.19,30.11,10,10,10,15,8,17,0.00,0,,178
2012-11-4,65,45,25,27,22,17,74,49,24,30.47,30.34,30.24,10,10,10,17,9,21,0.00,0,,153
2012-11-5,66,46,25,31,26,21,81,55,28,30.51,30.37,30.26,10,10,10,16,9,22,0.00,0,,162
2012-11-6,72,49,25,28,23,20,81,48,15,30.44,30.24,30.11,10,10,10,15,8,16,0.00,0,,161
2012-11-7,67,47,27,27,21,18,75,45,15,30.20,29.99,29.77,10,10,10,20,10,23,0.00,0,,186
2012-11-8,62,49,36,32,25,21,59,41,22,29.76,29.56,29.35,10,10,10,37,20,48,T,2,,176
2012-11-9,49,28,6,29,24,8,100,73,46,29.84,29.68,29.37,10,4,0,36,8,48,0.47,7,Fog-Rain-Snow,337
2012-11-10,29,17,4,18,13,2,92,74,55,30.15,29.95,29.75,10,10,9,12,4,15,T,6,,252
2012-11-11,32,22,12,16,12,8,88,66,43,30.53,30.35,30.07,10,10,6,14,5,17,T,3,Snow,274
2012-11-12,50,30,9,21,12,4,88,54,19,30.60,30.45,30.32,10,10,10,15,7,18,0.00,1,,166
2012-11-13,52,34,16,25,19,11,88,58,27,30.46,30.31,30.19,10,10,10,15,7,18,0.00,0,,167
2012-11-14,56,40,23,25,20,17,81,52,22,30.33,30.22,30.12,10,10,10,14,6,16,0.00,0,,170
2012-11-15,58,39,19,25,20,15,84,56,28,30.35,30.20,30.05,10,10,10,16,7,20,0.00,0,,186
2012-11-16,49,42,35,35,25,16,76,55,33,30.10,30.00,29.95,10,10,10,22,9,25,T,7,,184
2012-11-17,50,43,36,38,35,33,92,79,65,30.08,29.98,29.90,10,10,10,24,14,31,T,7,Rain,179
2012-11-18,51,43,35,36,32,29,82,64,46,30.09,29.99,29.90,10,10,10,21,11,26,T,4,,186
2012-11-19,52,42,32,35,31,29,82,65,48,30.25,30.18,30.09,10,10,10,18,11,22,0.00,3,,192
2012-11-20,56,41,26,31,27,23,92,61,30,30.27,30.10,29.97,10,10,10,26,12,38,0.00,0,,184
2012-11-21,57,42,27,28,25,21,78,54,30,30.14,29.99,29.88,10,10,10,22,11,25,0.00,1,,183
2012-11-22,50,36,21,28,23,18,92,63,33,30.52,30.36,30.15,10,10,10,12,6,17,0.00,0,,151
2012-11-23,63,40,17,24,17,14,91,53,14,30.57,30.43,30.29,10,10,10,14,7,16,0.00,0,,167
2012-11-24,63,42,21,17,14,12,68,41,14,30.40,30.21,30.02,10,10,10,16,9,18,0.00,0,,177
2012-11-25,57,39,20,17,13,9,68,42,15,30.18,30.06,29.97,10,10,10,16,9,20,0.00,2,,188
2012-11-26,57,35,13,18,13,9,80,48,16,30.35,30.24,30.12,10,10,10,13,6,15,0.00,0,,176
2012-11-27,58,38,18,19,13,6,73,43,13,30.38,30.22,30.10,10,10,10,17,10,33,0.00,0,,187
2012-11-28,56,43,30,24,20,15,54,38,22,30.20,30.04,29.91,10,10,10,30,16,109,0.00,1,,182
2012-11-29,51,43,34,34,30,24,70,58,46,30.14,30.01,29.93,10,10,10,24,14,31,0.00,2,,176
2012-11-30,51,46,40,36,34,31,70,59,48,29.98,29.88,29.83,10,10,10,30,18,39,0.00,5,,165